createdAt,value
2018-06-16T00:01:06.805Z,24.10
2018-06-16T00:03:36.088Z,22.60
2018-06-16T00:06:05.136Z,23.70
2018-06-16T00:08:34.985Z,17.13
2018-06-16T00:11:04.362Z,8.73
2018-06-16T00:13:33.782Z,6.93
2018-06-16T00:16:03.141Z,31.00
2018-06-16T00:18:32.633Z,21.97
2018-06-16T00:21:02.084Z,8.80
2018-06-16T00:23:31.484Z,11.47
2018-06-16T00:26:00.807Z,17.63
2018-06-16T00:28:30.098Z,28.63
2018-06-16T00:30:59.908Z,22.40
2018-06-16T00:33:29.311Z,15.60
2018-06-16T00:35:58.667Z,10.17
2018-06-16T00:38:28.119Z,31.60
2018-06-16T00:40:57.447Z,16.10
2018-06-16T00:43:26.809Z,13.83
2018-06-16T00:45:56.246Z,23.63
2018-06-16T00:48:25.382Z,23.50
2018-06-16T00:50:54.775Z,25.77
2018-06-16T00:53:24.252Z,11.50
2018-06-16T00:55:53.680Z,17.90
2018-06-16T00:58:23.120Z,11.80
2018-06-16T01:00:52.534Z,16.13
2018-06-16T01:03:21.818Z,27.37
2018-06-16T01:05:51.094Z,20.47
2018-06-16T01:08:20.443Z,13.67
2018-06-16T01:10:49.760Z,16.07
2018-06-16T01:13:19.063Z,28.57
2018-06-16T01:15:48.640Z,9.30
2018-06-16T01:18:17.931Z,18.57
2018-06-16T01:20:47.275Z,14.73
2018-06-16T01:23:16.643Z,14.23
2018-06-16T01:25:46.097Z,11.10
2018-06-16T01:28:15.138Z,10.37
2018-06-16T01:30:44.479Z,10.10
2018-06-16T01:33:13.842Z,10.77
2018-06-16T01:35:43.165Z,15.53
2018-06-16T01:38:12.926Z,7.70
2018-06-16T01:40:42.245Z,13.07
2018-06-16T01:43:11.575Z,17.60
2018-06-16T01:45:40.945Z,10.13
2018-06-16T01:48:10.352Z,4.70
2018-06-16T01:50:39.751Z,14.30
2018-06-16T01:53:09.290Z,12.63
2018-06-16T01:55:38.631Z,10.57
2018-06-16T01:58:07.904Z,20.90
2018-06-16T02:00:37.643Z,7.73
2018-06-16T02:03:07.010Z,10.67
2018-06-16T02:05:36.401Z,13.03
2018-06-16T02:08:05.771Z,15.60
2018-06-16T02:10:35.086Z,7.40
2018-06-16T02:13:04.364Z,8.10
2018-06-16T02:15:33.708Z,11.43
2018-06-16T02:18:03.395Z,15.83
2018-06-16T02:20:32.762Z,11.57
2018-06-16T02:23:02.575Z,7.17
2018-06-16T02:25:31.858Z,13.63
2018-06-16T02:28:01.165Z,15.47
2018-06-16T02:30:30.490Z,13.73
2018-06-16T02:32:59.790Z,15.93
2018-06-16T02:35:29.172Z,18.60
2018-06-16T02:37:58.539Z,13.43
2018-06-16T02:40:27.790Z,8.87
2018-06-16T02:42:57.200Z,7.67
2018-06-16T02:45:27.223Z,16.63
2018-06-16T02:47:56.531Z,8.73
2018-06-16T02:50:26.009Z,12.03
2018-06-16T02:52:55.251Z,13.03
2018-06-16T02:55:24.519Z,12.30
2018-06-16T02:57:53.938Z,19.77
2018-06-16T03:00:23.255Z,5.93
2018-06-16T03:02:52.521Z,16.20
2018-06-16T03:05:21.590Z,21.27
2018-06-16T03:07:51.529Z,9.53
2018-06-16T03:10:20.839Z,9.37
2018-06-16T03:12:50.201Z,15.03
2018-06-16T03:15:19.579Z,9.67
2018-06-16T03:17:48.861Z,13.80
2018-06-16T03:20:18.895Z,16.00
2018-06-16T03:22:48.217Z,9.90
2018-06-16T03:25:17.518Z,16.03
2018-06-16T03:27:46.880Z,14.23
2018-06-16T03:30:16.557Z,15.90
2018-06-16T03:32:45.899Z,7.87
2018-06-16T03:35:15.261Z,20.30
2018-06-16T03:37:44.574Z,14.30
2018-06-16T03:40:13.913Z,11.53
2018-06-16T03:42:43.259Z,12.60
2018-06-16T03:45:12.577Z,19.17
2018-06-16T03:47:41.916Z,8.07
2018-06-16T03:50:11.259Z,11.37
2018-06-16T03:52:40.897Z,12.63
2018-06-16T03:55:10.211Z,12.97
2018-06-16T03:57:39.508Z,19.60
2018-06-16T04:00:09.125Z,10.70
2018-06-16T04:02:38.510Z,12.23
2018-06-16T04:05:07.830Z,14.30
2018-06-16T04:07:37.185Z,8.93
2018-06-16T04:10:06.561Z,10.03
2018-06-16T04:12:35.876Z,27.87
2018-06-16T04:15:05.603Z,20.20
2018-06-16T04:17:34.902Z,7.63
2018-06-16T04:20:04.235Z,13.00
2018-06-16T04:22:33.571Z,18.63
2018-06-16T04:25:02.901Z,11.47
2018-06-16T04:27:32.199Z,9.00
2018-06-16T04:30:01.483Z,20.40
2018-06-16T04:32:30.835Z,12.77
2018-06-16T04:35:00.148Z,9.83
2018-06-16T04:37:29.940Z,12.23
2018-06-16T04:39:59.202Z,11.33
2018-06-16T04:42:28.596Z,17.67
2018-06-16T04:44:58.028Z,16.33
2018-06-16T04:47:27.323Z,17.07
2018-06-16T04:49:56.626Z,14.03
2018-06-16T04:52:25.986Z,16.80
2018-06-16T04:54:55.414Z,13.67
2018-06-16T04:57:24.722Z,12.50
2018-06-16T04:59:54.263Z,16.37
2018-06-16T05:02:23.517Z,9.00
2018-06-16T05:04:52.830Z,12.80
2018-06-16T05:07:22.238Z,13.20
2018-06-16T05:09:51.568Z,16.10
2018-06-16T05:12:20.897Z,16.97
2018-06-16T05:14:50.162Z,15.53
2018-06-16T05:17:19.434Z,20.00
2018-06-16T05:19:48.802Z,22.73
2018-06-16T05:22:18.599Z,19.40
2018-06-16T05:24:47.979Z,10.93
2018-06-16T05:27:17.267Z,12.87
2018-06-16T05:29:46.567Z,19.57
2018-06-16T05:32:15.877Z,12.30
2018-06-16T05:34:45.192Z,25.27
2018-06-16T05:37:14.479Z,7.57
2018-06-16T05:39:43.734Z,15.90
2018-06-16T05:42:13.135Z,14.23
2018-06-16T05:44:42.976Z,12.37
2018-06-16T05:47:12.280Z,10.60
2018-06-16T05:49:41.557Z,11.00
2018-06-16T05:52:10.887Z,14.50
2018-06-16T05:54:40.261Z,15.30
2018-06-16T05:57:09.530Z,19.63
2018-06-16T05:59:38.953Z,11.10
2018-06-16T06:02:08.294Z,8.23
2018-06-16T06:04:38.236Z,12.40
2018-06-16T06:07:07.920Z,17.33
2018-06-16T06:09:37.194Z,15.10
2018-06-16T06:12:06.583Z,13.90
2018-06-16T06:14:35.805Z,15.87
2018-06-16T06:17:05.415Z,13.47
2018-06-16T06:19:34.754Z,10.57
2018-06-16T06:22:04.165Z,14.80
2018-06-16T06:24:33.518Z,9.40
2018-06-16T06:27:02.892Z,16.90
2018-06-16T06:29:32.815Z,13.80
2018-06-16T06:32:02.168Z,8.00
2018-06-16T06:34:31.485Z,9.40
2018-06-16T06:37:00.835Z,19.63
2018-06-16T06:39:30.172Z,11.10
2018-06-16T06:41:59.765Z,16.90
2018-06-16T06:44:29.230Z,15.07
2018-06-16T06:46:59.043Z,8.50
2018-06-16T06:49:28.341Z,10.07
2018-06-16T06:51:58.056Z,10.20
2018-06-16T06:54:28.207Z,9.57
2018-06-16T06:56:57.522Z,15.70
2018-06-16T06:59:26.900Z,10.73
2018-06-16T07:01:56.235Z,16.67
2018-06-16T07:04:25.544Z,12.13
2018-06-16T07:06:54.935Z,15.50
2018-06-16T07:09:24.368Z,9.40
2018-06-16T07:11:53.714Z,13.20
2018-06-16T07:14:23.518Z,12.77
2018-06-16T07:16:52.893Z,11.30
2018-06-16T07:19:22.242Z,11.30
2018-06-16T07:21:51.685Z,17.17
2018-06-16T07:24:21.003Z,11.50
2018-06-16T07:26:50.289Z,13.13
2018-06-16T07:29:19.680Z,26.17
2018-06-16T07:31:49.076Z,21.50
2018-06-16T07:34:18.400Z,11.83
2018-06-16T07:36:47.889Z,13.80
2018-06-16T07:39:17.235Z,12.53
2018-06-16T07:41:46.692Z,24.93
2018-06-16T07:44:16.025Z,20.10
2018-06-16T07:46:45.310Z,11.20
2018-06-16T07:49:14.671Z,11.93
2018-06-16T07:51:44.095Z,27.13
2018-06-16T07:54:13.564Z,9.03
2018-06-16T07:56:42.975Z,14.23
2018-06-16T07:59:12.306Z,10.43
2018-06-16T08:01:41.688Z,11.17
2018-06-16T08:04:11.057Z,9.50
2018-06-16T08:06:40.432Z,9.57
2018-06-16T08:09:11.043Z,10.93
2018-06-16T08:11:40.397Z,10.33
2018-06-16T08:14:09.699Z,8.47
2018-06-16T08:16:38.990Z,13.33
2018-06-16T08:19:08.357Z,15.80
2018-06-16T08:21:38.116Z,12.40
2018-06-16T08:24:07.417Z,13.90
2018-06-16T08:26:36.703Z,12.50
2018-06-16T08:29:06.340Z,11.53
2018-06-16T08:31:35.703Z,9.73
2018-06-16T08:34:05.126Z,8.00
2018-06-16T08:36:34.517Z,9.20
2018-06-16T08:39:04.440Z,7.57
2018-06-16T08:41:34.230Z,10.97
2018-06-16T08:44:04.085Z,7.40
2018-06-16T08:46:33.450Z,11.60
2018-06-16T08:49:02.766Z,9.60
2018-06-16T08:51:32.190Z,9.83
2018-06-16T08:54:01.594Z,8.20
2018-06-16T08:56:31.048Z,8.73
2018-06-16T08:59:00.451Z,15.27
2018-06-16T09:01:29.770Z,7.93
2018-06-16T09:03:59.055Z,6.20
2018-06-16T09:06:28.876Z,7.47
2018-06-16T09:08:58.382Z,8.30
2018-06-16T09:11:27.776Z,14.30
2018-06-16T09:13:57.127Z,8.50
2018-06-16T09:16:26.384Z,6.53
2018-06-16T09:18:55.971Z,11.20
2018-06-16T09:21:25.368Z,5.60
2018-06-16T09:23:54.444Z,10.83
2018-06-16T09:26:23.856Z,8.80
2018-06-16T09:28:53.470Z,10.47
2018-06-16T09:31:22.500Z,5.17
2018-06-16T09:33:51.999Z,5.70
2018-06-16T09:36:21.368Z,4.73
2018-06-16T09:38:50.703Z,9.57
2018-06-16T09:41:20.155Z,4.63
2018-06-16T09:43:49.550Z,5.17
2018-06-16T09:46:18.839Z,4.50
2018-06-16T09:48:48.227Z,4.90
2018-06-16T09:51:17.842Z,7.93
2018-06-16T09:53:47.218Z,4.87
2018-06-16T09:56:16.598Z,4.50
2018-06-16T09:58:45.941Z,4.60
2018-06-16T10:01:15.299Z,5.60
2018-06-16T10:03:44.690Z,5.40
2018-06-16T10:06:14.075Z,4.53
2018-06-16T10:08:43.420Z,7.13
2018-06-16T10:11:12.679Z,5.30
2018-06-16T10:13:42.387Z,4.97
2018-06-16T10:16:11.884Z,7.53
2018-06-16T10:18:41.187Z,4.93
2018-06-16T10:21:10.782Z,4.70
2018-06-16T10:23:40.095Z,4.30
2018-06-16T10:26:09.510Z,5.53
2018-06-16T10:28:38.981Z,4.73
2018-06-16T10:31:08.523Z,4.50
2018-06-16T10:33:37.831Z,12.00
2018-06-16T10:36:08.027Z,4.70
2018-06-16T10:38:37.409Z,4.50
2018-06-16T10:41:06.848Z,15.70
2018-06-16T10:43:36.397Z,10.00
2018-06-16T10:46:05.832Z,5.03
2018-06-16T10:48:35.134Z,4.80
2018-06-16T10:51:04.514Z,4.50
2018-06-16T10:53:33.873Z,5.13
2018-06-16T10:56:03.273Z,8.73
2018-06-16T10:58:32.908Z,4.50
2018-06-16T11:01:02.852Z,4.40
2018-06-16T11:03:32.189Z,4.20
2018-06-16T11:06:01.561Z,4.37
2018-06-16T11:08:31.129Z,3.53
2018-06-16T11:11:00.443Z,4.20
2018-06-16T11:13:29.900Z,3.90
2018-06-16T11:15:59.340Z,10.03
2018-06-16T11:18:28.819Z,11.20
2018-06-16T11:20:58.421Z,3.33
2018-06-16T11:23:27.731Z,2.80
2018-06-16T11:25:57.020Z,2.40
2018-06-16T11:28:26.331Z,3.23
2018-06-16T11:30:55.698Z,3.60
2018-06-16T11:33:25.126Z,14.20
2018-06-16T11:35:54.751Z,3.07
2018-06-16T11:38:24.373Z,3.17
2018-06-16T11:40:53.759Z,7.07
2018-06-16T11:43:23.605Z,2.10
2018-06-16T11:45:53.047Z,2.23
2018-06-16T11:48:22.422Z,2.33
2018-06-16T11:50:51.862Z,2.47
2018-06-16T11:53:21.229Z,2.40
2018-06-16T11:55:50.663Z,5.93
2018-06-16T11:58:20.124Z,2.50
2018-06-16T12:00:50.021Z,2.60
2018-06-16T12:03:19.136Z,17.37
2018-06-16T12:05:49.116Z,4.10
2018-06-16T12:08:18.466Z,2.60
2018-06-16T12:10:49.443Z,2.60
2018-06-16T12:13:18.794Z,2.90
2018-06-16T12:15:48.229Z,2.10
2018-06-16T12:18:17.552Z,2.83
2018-06-16T12:20:47.108Z,3.47
2018-06-16T12:23:16.436Z,2.90
2018-06-16T12:25:45.747Z,3.03
2018-06-16T12:28:15.337Z,4.87
2018-06-16T12:30:44.832Z,3.43
2018-06-16T12:33:14.256Z,3.27
2018-06-16T12:35:43.846Z,6.47
2018-06-16T12:38:13.220Z,6.93
2018-06-16T12:40:42.560Z,7.40
2018-06-16T12:43:11.946Z,5.53
2018-06-16T12:45:41.251Z,4.67
2018-06-16T12:48:10.710Z,4.23
2018-06-16T12:50:40.245Z,10.37
2018-06-16T12:53:09.704Z,6.33
2018-06-16T12:55:39.043Z,8.53
2018-06-16T12:58:08.451Z,7.60
2018-06-16T13:00:37.825Z,5.70
2018-06-16T13:03:07.276Z,4.73
2018-06-16T13:05:36.758Z,7.40
2018-06-16T13:08:06.174Z,5.43
2018-06-16T13:10:35.691Z,17.83
2018-06-16T13:13:05.471Z,7.17
2018-06-16T13:15:34.845Z,5.50
2018-06-16T13:18:04.235Z,6.03
2018-06-16T13:20:33.542Z,8.23
2018-06-16T13:23:03.075Z,6.07
2018-06-16T13:25:32.435Z,5.40
2018-06-16T13:28:02.557Z,6.10
2018-06-16T13:30:32.149Z,4.33
2018-06-16T13:33:01.994Z,7.10
2018-06-16T13:35:32.033Z,16.97
2018-06-16T13:38:01.508Z,6.97
2018-06-16T13:40:30.696Z,13.57
2018-06-16T13:43:00.380Z,14.33
2018-06-16T13:45:29.844Z,15.27
2018-06-16T13:47:59.649Z,27.23
2018-06-16T13:50:29.208Z,8.23
2018-06-16T13:52:58.771Z,6.30
2018-06-16T13:55:28.181Z,9.40
2018-06-16T13:57:57.948Z,7.37
2018-06-16T14:00:27.504Z,14.30
2018-06-16T14:02:56.853Z,9.03
2018-06-16T14:05:26.288Z,12.80
2018-06-16T14:07:55.777Z,12.70
2018-06-16T14:10:25.098Z,12.40
2018-06-16T14:12:55.036Z,12.73
2018-06-16T14:15:24.503Z,6.80
2018-06-16T14:17:53.890Z,13.00
2018-06-16T14:20:23.555Z,10.70
2018-06-16T14:22:52.941Z,6.67
2018-06-16T14:25:22.336Z,6.83
2018-06-16T14:27:51.893Z,13.07
2018-06-16T14:30:21.315Z,10.83
2018-06-16T14:32:50.654Z,11.03
2018-06-16T14:35:20.621Z,10.13
2018-06-16T14:37:50.140Z,24.67
2018-06-16T14:40:19.586Z,8.20
2018-06-16T14:42:49.086Z,9.90
2018-06-16T14:45:18.508Z,13.37
2018-06-16T14:47:47.937Z,7.50
2018-06-16T14:50:17.394Z,6.27
2018-06-16T14:52:46.857Z,8.73
2018-06-16T14:55:16.240Z,6.93
2018-06-16T14:57:45.997Z,10.17
2018-06-16T15:00:15.413Z,3.60
2018-06-16T15:02:44.922Z,3.73
2018-06-16T15:05:14.408Z,3.27
2018-06-16T15:07:43.850Z,4.00
2018-06-16T15:10:13.286Z,3.40
2018-06-16T15:12:42.681Z,5.77
2018-06-16T15:15:12.160Z,4.63
2018-06-16T15:17:41.578Z,19.57
2018-06-16T15:20:10.934Z,10.23
2018-06-16T15:22:40.411Z,4.57
2018-06-16T15:25:10.007Z,3.80
2018-06-16T15:27:39.814Z,3.20
2018-06-16T15:30:09.255Z,4.30
2018-06-16T15:32:38.633Z,4.00
2018-06-16T15:35:08.064Z,9.63
2018-06-16T15:37:37.503Z,3.70
2018-06-16T15:40:06.929Z,9.57
2018-06-16T15:42:36.330Z,6.23
2018-06-16T15:45:05.887Z,4.87
2018-06-16T15:47:35.242Z,4.67
2018-06-16T15:50:05.012Z,6.20
2018-06-16T15:52:34.471Z,4.00
2018-06-16T15:55:04.017Z,3.70
2018-06-16T15:57:33.304Z,4.00
2018-06-16T16:00:02.692Z,4.27
2018-06-16T16:02:32.146Z,4.23
2018-06-16T16:05:01.634Z,7.73
2018-06-16T16:07:31.065Z,4.67
2018-06-16T16:10:00.587Z,11.80
2018-06-16T16:12:30.242Z,6.83
2018-06-16T16:14:59.612Z,7.07
2018-06-16T16:17:29.051Z,6.77
2018-06-16T16:19:58.516Z,5.00
2018-06-16T16:22:27.904Z,11.60
2018-06-16T16:24:57.234Z,3.87
2018-06-16T16:27:26.695Z,4.10
2018-06-16T16:29:56.154Z,4.10
2018-06-16T16:32:25.515Z,4.23
2018-06-16T16:34:55.403Z,9.47
2018-06-16T16:37:24.846Z,5.17
2018-06-16T16:39:54.421Z,4.87
2018-06-16T16:42:23.544Z,9.50
2018-06-16T16:44:52.932Z,6.57
2018-06-16T16:47:22.299Z,8.17
2018-06-16T16:49:51.657Z,5.10
2018-06-16T16:52:21.156Z,5.23
2018-06-16T16:54:50.555Z,6.80
2018-06-16T16:57:20.514Z,12.53
2018-06-16T16:59:49.941Z,19.33
2018-06-16T17:02:19.353Z,9.33
2018-06-16T17:04:48.770Z,7.40
2018-06-16T17:07:18.211Z,5.70
2018-06-16T17:09:47.563Z,6.43
2018-06-16T17:12:16.966Z,12.33
2018-06-16T17:14:46.314Z,8.60
2018-06-16T17:17:15.692Z,16.77
2018-06-16T17:19:45.522Z,8.90
2018-06-16T17:22:14.885Z,7.63
2018-06-16T17:24:44.281Z,22.80
2018-06-16T17:27:13.777Z,13.60
2018-06-16T17:29:43.302Z,9.63
2018-06-16T17:32:12.647Z,12.47
2018-06-16T17:34:42.059Z,23.93
2018-06-16T17:37:11.444Z,10.40
2018-06-16T17:39:40.788Z,12.37
2018-06-16T17:42:10.433Z,15.13
2018-06-16T17:44:39.887Z,15.70
2018-06-16T17:47:09.310Z,5.70
2018-06-16T17:49:38.677Z,10.33
2018-06-16T17:52:08.291Z,16.00
2018-06-16T17:54:37.775Z,8.40
2018-06-16T17:57:07.274Z,11.73
2018-06-16T17:59:37.335Z,14.23
2018-06-16T18:02:06.778Z,12.03
2018-06-16T18:04:36.196Z,5.10
2018-06-16T18:07:05.554Z,8.77
2018-06-16T18:09:34.976Z,11.53
2018-06-16T18:12:04.344Z,7.70
2018-06-16T18:14:33.766Z,9.70
2018-06-16T18:17:03.145Z,5.33
2018-06-16T18:19:32.608Z,6.13
2018-06-16T18:22:02.044Z,8.80
2018-06-16T18:24:31.436Z,9.30
2018-06-16T18:27:01.164Z,9.63
2018-06-16T18:29:30.617Z,10.00
2018-06-16T18:32:00.030Z,10.30
2018-06-16T18:34:29.398Z,7.87
2018-06-16T18:36:58.731Z,10.10
2018-06-16T18:39:28.049Z,8.13
2018-06-16T18:41:57.460Z,18.77
2018-06-16T18:44:27.106Z,13.00
2018-06-16T18:46:56.551Z,8.23
2018-06-16T18:49:26.074Z,14.67
2018-06-16T18:51:55.444Z,12.77
2018-06-16T18:54:24.841Z,8.63
2018-06-16T18:56:54.319Z,5.90
2018-06-16T18:59:23.748Z,7.03
2018-06-16T19:01:53.231Z,14.77
2018-06-16T19:04:22.583Z,10.73
2018-06-16T19:06:51.956Z,8.03
2018-06-16T19:09:21.347Z,6.17
2018-06-16T19:11:51.237Z,7.10
2018-06-16T19:14:20.599Z,11.53
2018-06-16T19:16:49.931Z,8.43
2018-06-16T19:19:19.313Z,20.50
2018-06-16T19:21:48.648Z,17.87
2018-06-16T19:24:17.955Z,36.53
2018-06-16T19:26:47.336Z,13.20
2018-06-16T19:29:16.692Z,19.13
2018-06-16T19:31:46.112Z,16.93
2018-06-16T19:34:15.707Z,20.60
2018-06-16T19:36:45.033Z,18.17
2018-06-16T19:39:14.397Z,20.93
2018-06-16T19:41:43.865Z,13.63
2018-06-16T19:44:13.295Z,15.70
2018-06-16T19:46:44.614Z,27.33
2018-06-16T19:49:13.972Z,20.70
2018-06-16T19:51:43.393Z,58.80
2018-06-16T19:54:12.952Z,51.13
2018-06-16T19:56:42.329Z,56.97
2018-06-16T19:59:11.656Z,38.13
2018-06-16T20:01:41.191Z,26.30
2018-06-16T20:04:10.536Z,24.80
2018-06-16T20:06:40.088Z,33.63
2018-06-16T20:09:09.473Z,32.90
2018-06-16T20:11:38.876Z,25.50
2018-06-16T20:14:08.479Z,28.87
2018-06-16T20:16:38.362Z,47.97
2018-06-16T20:19:07.783Z,36.67
2018-06-16T20:21:37.097Z,35.80
2018-06-16T20:24:06.509Z,59.27
2018-06-16T20:26:36.923Z,59.63
2018-06-16T20:29:06.315Z,23.73
2018-06-16T20:31:35.792Z,22.13
2018-06-16T20:34:05.197Z,24.47
2018-06-16T20:36:34.548Z,33.93
2018-06-16T20:39:05.485Z,29.63
2018-06-16T20:41:34.867Z,16.53
2018-06-16T20:44:04.241Z,19.23
2018-06-16T20:46:33.646Z,14.70
2018-06-16T20:49:03.148Z,17.73
2018-06-16T20:51:32.554Z,24.80
2018-06-16T20:54:02.322Z,29.63
2018-06-16T20:56:31.686Z,12.40
2018-06-16T20:59:01.165Z,47.23
2018-06-16T21:01:30.648Z,47.03
2018-06-16T21:04:00.148Z,44.47
2018-06-16T21:06:29.602Z,51.97
2018-06-16T21:08:58.937Z,38.03
2018-06-16T21:11:28.288Z,40.43
2018-06-16T21:13:57.722Z,36.70
2018-06-16T21:16:27.069Z,25.00
2018-06-16T21:18:56.419Z,33.57
2018-06-16T21:21:25.712Z,28.80
2018-06-16T21:23:55.327Z,48.17
2018-06-16T21:26:24.633Z,31.33
2018-06-16T21:28:54.041Z,24.07
2018-06-16T21:31:23.647Z,27.23
2018-06-16T21:33:52.766Z,31.40
2018-06-16T21:36:22.319Z,45.33
2018-06-16T21:38:51.982Z,28.37
2018-06-16T21:41:21.358Z,24.30
2018-06-16T21:43:50.874Z,35.40
2018-06-16T21:46:20.583Z,27.63
2018-06-16T21:48:49.923Z,18.63
2018-06-16T21:51:19.540Z,16.13
2018-06-16T21:53:48.937Z,22.57
2018-06-16T21:56:18.294Z,52.03
2018-06-16T21:58:47.389Z,32.97
2018-06-16T22:01:17.185Z,15.00
2018-06-16T22:03:46.664Z,16.37
2018-06-16T22:06:16.041Z,18.50
2018-06-16T22:08:45.934Z,17.60
2018-06-16T22:11:15.437Z,21.83
2018-06-16T22:13:44.888Z,26.57
2018-06-16T22:16:14.290Z,17.87
2018-06-16T22:18:43.720Z,14.40
2018-06-16T22:21:13.050Z,45.83
2018-06-16T22:23:42.702Z,20.40
2018-06-16T22:26:12.097Z,36.87
2018-06-16T22:28:41.435Z,19.03
2018-06-16T22:31:11.215Z,22.23
2018-06-16T22:33:40.511Z,19.20
2018-06-16T22:36:10.050Z,34.33
2018-06-16T22:38:39.581Z,26.17
2018-06-16T22:41:09.010Z,43.33
2018-06-16T22:43:38.386Z,24.37
2018-06-16T22:46:07.807Z,19.33
2018-06-16T22:48:37.238Z,22.97
2018-06-16T22:51:06.553Z,19.50
2018-06-16T22:53:36.174Z,29.93
2018-06-16T22:56:05.734Z,45.53
2018-06-16T22:58:35.124Z,25.73
2018-06-16T23:01:04.599Z,36.60
2018-06-16T23:03:34.050Z,46.57
2018-06-16T23:06:03.868Z,25.23
2018-06-16T23:08:33.275Z,35.27
2018-06-16T23:11:02.617Z,21.60
2018-06-16T23:13:32.105Z,22.60
2018-06-16T23:16:02.042Z,30.10
2018-06-16T23:18:31.580Z,18.27
2018-06-16T23:21:00.915Z,27.17
2018-06-16T23:23:30.423Z,29.03
2018-06-16T23:25:59.905Z,40.63
2018-06-16T23:28:29.429Z,34.33
2018-06-16T23:30:58.951Z,32.87
2018-06-16T23:33:28.353Z,26.77
2018-06-16T23:35:57.791Z,34.20
2018-06-16T23:38:27.903Z,36.00
2018-06-16T23:40:57.369Z,12.63
2018-06-16T23:43:26.753Z,24.63
2018-06-16T23:45:56.243Z,19.50
2018-06-16T23:48:25.588Z,19.23
2018-06-16T23:50:54.977Z,19.50
2018-06-16T23:53:24.299Z,18.10
2018-06-16T23:55:53.644Z,37.50
2018-06-16T23:58:23.035Z,21.77
